Wallace, West Virginia
Current Conditions -  °F | °C
As of 9:53 PM on Sunday 23 Nov 2014 (Local Time) from KCKB Reporting Station
Light Rain Light Rain  
Wind Chill: 58°   Ceiling: 10000
Heat Index: 58°   Visibility: 10mi
Dew Point: 52°   Wind: 8mph
Humidity: 81%   Direction: 140°SE
Pressure: 29.59"   Gusts: 22mph
Location:  39.41°N, 80.49°W
Report Text: KCKB 240253Z AUTO 14007G19KT 090V170 10SM -RA BKN100 OVC110 14/11 A2959 RMK AO2 SLP012 P0006 60007 T01440111 58051 TSNO
Loading
Personal Weather Stations






























Interactive Weather Map New forecast layout! Learn more

10-Day Weather Forecast

Advertisements
Track Severe Weather on mobile